Clarksville, Illinois
Current Conditions -  °F | °C
As of 2:35 PM on Monday 22 Dec 2014 (Local Time) from KPRG Reporting Station
Light Rain Light Rain  
Wind Chill: 39°   Ceiling: 4200
Heat Index: 45°   Visibility: 7mi
Dew Point: 44°   Wind: 12mph
Humidity: 96%   Direction: 130°SE
Pressure: 29.7"   Gusts: 17mph
Location:  39.4361°N, 87.7043°W
Report Text: KPRG 222035Z AUTO 13010G15KT 7SM -RA SCT019 BKN042 OVC050 07/07 A2970 RMK AO2 T00710065
Loading
Personal Weather Stations






























Interactive Weather Map New forecast layout! Learn more

10-Day Weather Forecast

Advertisements
Track Severe Weather on mobile